Time;durP1;ratioP1;P1;durP2;ratioP2;P2;SDS_P1;SDS_P2;PMS_P1;PMS_P2;Temp;Humidity;BMP_temperature;BMP_pressure;BME280_temperature;BME280_humidity;BME280_pressure;Samples;Min_cycle;Max_cycle;Signal;HPM_P1;HPM_P2
2021/03/26 00:01:01;;;;;;;0.20;0.20;;;6.40;99.90;;;;;;4988560;28;20038;-83
2021/03/26 00:03:30;;;;;;;0.20;0.20;;;6.20;99.90;;;;;;4990169;28;20023;-84
2021/03/26 00:06:03;;;;;;;1.38;0.47;;;6.30;99.90;;;;;;4991059;28;20030;-83
2021/03/26 00:08:30;;;;;;;0.38;0.38;;;6.40;99.90;;;;;;4988227;28;20028;-83
2021/03/26 00:10:57;;;;;;;0.15;0.15;;;6.40;99.90;;;;;;4987073;28;20043;-84
2021/03/26 00:13:23;;;;;;;0.20;0.20;;;6.40;99.90;;;;;;4989193;28;20041;-83
2021/03/26 00:15:49;;;;;;;0.55;0.55;;;6.40;99.90;;;;;;4989652;28;20927;-84
2021/03/26 00:18:15;;;;;;;0.30;0.30;;;6.40;99.90;;;;;;4987281;28;20038;-84
2021/03/26 00:20:40;;;;;;;0.20;0.20;;;6.20;99.90;;;;;;4982163;28;20532;-84
2021/03/26 00:23:08;;;;;;;0.20;0.20;;;6.10;99.90;;;;;;4980942;28;20102;-84
2021/03/26 00:25:36;;;;;;;0.10;0.10;;;6.00;99.90;;;;;;4988245;28;20030;-84
2021/03/26 00:28:05;;;;;;;0.20;0.20;;;6.00;99.90;;;;;;4989879;28;20032;-84
2021/03/26 00:30:32;;;;;;;0.20;0.20;;;6.00;99.90;;;;;;4984256;28;20379;-84
2021/03/26 00:32:59;;;;;;;0.55;0.47;;;6.00;99.90;;;;;;4981789;28;20414;-84
2021/03/26 00:35:27;;;;;;;0.20;0.20;;;5.90;99.90;;;;;;4988704;28;20042;-84
2021/03/26 00:37:53;;;;;;;0.10;0.10;;;6.00;99.90;;;;;;4989103;28;20034;-84
2021/03/26 00:40:20;;;;;;;0.65;0.65;;;5.80;99.90;;;;;;4987559;28;20042;-84
2021/03/26 00:42:46;;;;;;;0.10;0.10;;;5.70;99.90;;;;;;4988642;28;20153;-83
2021/03/26 00:45:17;;;;;;;0.35;0.35;;;5.80;99.90;;;;;;4988652;28;20079;-84
2021/03/26 00:47:43;;;;;;;0.10;0.10;;;5.50;99.90;;;;;;4986419;28;20088;-84
2021/03/26 00:50:18;;;;;;;2.63;0.75;;;5.50;99.90;;;;;;4989165;28;20030;-83
2021/03/26 00:52:45;;;;;;;0.20;0.20;;;5.40;99.90;;;;;;4989604;28;20037;-84
2021/03/26 00:55:13;;;;;;;0.30;0.30;;;5.40;99.90;;;;;;4984927;28;20410;-85
2021/03/26 00:57:41;;;;;;;0.25;0.25;;;5.30;99.90;;;;;;4987840;28;20038;-85
2021/03/26 01:00:10;;;;;;;0.52;0.52;;;5.30;99.90;;;;;;4987843;28;20034;-85
2021/03/26 01:02:35;;;;;;;4.13;0.40;;;5.30;99.90;;;;;;4989442;28;20033;-83
2021/03/26 01:05:05;;;;;;;0.57;0.57;;;5.30;99.90;;;;;;4989627;28;20035;-84
2021/03/26 01:07:31;;;;;;;0.30;0.30;;;5.40;99.90;;;;;;4987974;28;20018;-84
2021/03/26 01:09:57;;;;;;;0.30;0.30;;;5.30;99.90;;;;;;4988498;28;20030;-83
2021/03/26 01:12:22;;;;;;;0.25;0.22;;;5.30;99.90;;;;;;4982050;28;20038;-84
2021/03/26 01:14:48;;;;;;;0.10;0.10;;;5.20;99.90;;;;;;4986893;28;20026;-84
2021/03/26 01:17:14;;;;;;;0.30;0.30;;;5.10;99.90;;;;;;4984217;28;20116;-84
2021/03/26 01:19:42;;;;;;;0.10;0.10;;;5.30;99.90;;;;;;4987082;28;20439;-84
2021/03/26 01:22:08;;;;;;;0.70;0.70;;;5.30;99.90;;;;;;4986383;28;20168;-84
2021/03/26 01:24:35;;;;;;;0.68;0.68;;;5.30;99.90;;;;;;4985611;28;20026;-85
2021/03/26 01:27:06;;;;;;;0.57;0.57;;;5.30;99.90;;;;;;4988334;28;20072;-84
2021/03/26 01:29:32;;;;;;;0.45;0.45;;;5.40;99.90;;;;;;4987903;28;20101;-84
2021/03/26 01:31:58;;;;;;;0.10;0.10;;;5.40;99.90;;;;;;4986706;28;20137;-84
2021/03/26 01:34:23;;;;;;;0.22;0.22;;;5.30;99.90;;;;;;4988354;28;20049;-84
2021/03/26 01:36:50;;;;;;;0.20;0.20;;;5.30;99.90;;;;;;4979325;28;20034;-83
2021/03/26 01:39:16;;;;;;;0.40;0.40;;;5.30;99.90;;;;;;4987624;28;20522;-84
2021/03/26 01:41:46;;;;;;;0.20;0.20;;;5.40;99.90;;;;;;4985662;28;20037;-83
2021/03/26 01:44:13;;;;;;;1.30;1.13;;;5.50;99.90;;;;;;4986531;28;20026;-83
2021/03/26 01:46:41;;;;;;;0.30;0.30;;;5.40;99.90;;;;;;4989222;28;20510;-83
2021/03/26 01:49:08;;;;;;;0.10;0.10;;;5.20;99.90;;;;;;4988797;28;20019;-83
2021/03/26 01:51:38;;;;;;;0.20;0.20;;;5.20;99.90;;;;;;4988545;28;20049;-83
2021/03/26 01:54:07;;;;;;;0.10;0.10;;;5.20;99.90;;;;;;4984435;28;20482;-82
2021/03/26 01:56:33;;;;;;;0.10;0.10;;;5.40;99.90;;;;;;4987881;28;20908;-83
2021/03/26 01:58:59;;;;;;;0.10;0.10;;;5.40;99.90;;;;;;4988404;28;20046;-83
2021/03/26 02:01:36;;;;;;;0.38;0.38;;;5.40;99.90;;;;;;4987869;28;20026;-83
2021/03/26 02:04:06;;;;;;;0.10;0.10;;;5.40;99.90;;;;;;4988723;28;20609;-83
2021/03/26 02:06:37;;;;;;;1.55;1.10;;;5.30;99.90;;;;;;4982679;28;20101;-83
2021/03/26 02:09:14;;;;;;;0.10;0.10;;;5.10;99.90;;;;;;4988464;28;20073;-84
2021/03/26 02:11:47;;;;;;;0.47;0.47;;;5.10;99.90;;;;;;4979249;28;20506;-83
2021/03/26 02:14:20;;;;;;;3.40;0.75;;;5.10;99.90;;;;;;4980501;28;20035;-83
2021/03/26 02:16:47;;;;;;;0.38;0.38;;;5.00;99.90;;;;;;4988225;28;20830;-84
2021/03/26 02:19:31;;;;;;;0.22;0.22;;;4.90;99.90;;;;;;4987644;28;20033;-83
2021/03/26 02:21:57;;;;;;;0.20;0.20;;;5.10;99.90;;;;;;4987712;28;20398;-84
2021/03/26 02:24:26;;;;;;;1.48;0.98;;;5.00;99.90;;;;;;4984176;28;20549;-83
2021/03/26 02:26:56;;;;;;;0.45;0.45;;;4.90;99.90;;;;;;4987854;28;20030;-83
2021/03/26 02:29:27;;;;;;;0.93;0.85;;;4.90;99.90;;;;;;4984605;28;20033;-83
2021/03/26 02:32:01;;;;;;;0.10;0.10;;;4.70;99.90;;;;;;4987806;28;20065;-83
2021/03/26 02:34:29;;;;;;;0.35;0.35;;;4.70;99.90;;;;;;4988675;28;20576;-84
2021/03/26 02:37:06;;;;;;;0.60;0.60;;;4.70;99.90;;;;;;4987262;28;20117;-84
2021/03/26 02:39:40;;;;;;;0.40;0.40;;;4.70;99.90;;;;;;4981086;28;20533;-84
2021/03/26 02:42:28;;;;;;;0.73;0.73;;;4.80;99.90;;;;;;4988033;28;20088;-83
2021/03/26 02:45:18;;;;;;;0.40;0.40;;;4.60;99.90;;;;;;4985861;28;20029;-83
2021/03/26 02:48:04;;;;;;;0.20;0.20;;;4.50;99.90;;;;;;4986310;28;20035;-83
2021/03/26 02:50:36;;;;;;;0.20;0.20;;;4.50;99.90;;;;;;4985218;28;20033;-83
2021/03/26 02:53:50;;;;;;;0.20;0.20;;;4.70;99.90;;;;;;4988304;28;20096;-83
2021/03/26 02:56:40;;;;;;;0.35;0.35;;;4.70;99.90;;;;;;4946906;28;20035;-84
2021/03/26 02:59:13;;;;;;;0.20;0.20;;;4.60;99.90;;;;;;4948431;29;20071;-85
2021/03/26 03:01:45;;;;;;;0.38;0.38;;;4.40;99.90;;;;;;4933517;29;20035;-83
2021/03/26 03:04:14;;;;;;;0.20;0.20;;;4.70;99.90;;;;;;4934454;29;20043;-84
2021/03/26 03:06:46;;;;;;;0.20;0.20;;;4.70;99.90;;;;;;4947439;28;20087;-83
2021/03/26 03:09:13;;;;;;;0.57;0.57;;;4.90;99.90;;;;;;4948699;28;20055;-83
2021/03/26 03:11:45;;;;;;;0.35;0.35;;;4.70;99.90;;;;;;4944751;28;20065;-83
2021/03/26 03:14:28;;;;;;;0.80;0.63;;;4.70;99.90;;;;;;4946413;28;20027;-83
2021/03/26 03:17:10;;;;;;;0.10;0.10;;;4.70;99.90;;;;;;4944295;28;20051;-83
2021/03/26 03:19:50;;;;;;;0.45;0.45;;;4.80;99.90;;;;;;4944149;28;20472;-83
2021/03/26 03:22:29;;;;;;;0.40;0.40;;;4.70;99.90;;;;;;4931786;29;20027;-83
2021/03/26 03:25:00;;;;;;;0.77;0.73;;;4.50;99.90;;;;;;4947419;28;20053;-83
2021/03/26 03:27:26;;;;;;;0.15;0.15;;;4.60;99.90;;;;;;4942041;28;20515;-83
2021/03/26 03:30:01;;;;;;;0.20;0.20;;;4.60;99.90;;;;;;4957747;28;20043;-84
2021/03/26 03:32:33;;;;;;;0.30;0.30;;;4.70;99.90;;;;;;4986760;28;20054;-83
2021/03/26 03:35:21;;;;;;;0.20;0.20;;;4.60;99.90;;;;;;4990726;28;20040;-84
2021/03/26 03:37:54;;;;;;;0.30;0.30;;;4.50;99.90;;;;;;4983901;28;20672;-84
2021/03/26 03:40:26;;;;;;;0.52;0.25;;;4.50;99.90;;;;;;4988913;28;20030;-84
2021/03/26 03:43:02;;;;;;;1.65;1.05;;;4.50;99.90;;;;;;4984124;28;20038;-84
2021/03/26 03:45:44;;;;;;;0.75;0.75;;;4.50;99.90;;;;;;4988130;28;20064;-85
2021/03/26 03:48:37;;;;;;;0.35;0.35;;;4.40;99.90;;;;;;4975325;28;20046;-84
2021/03/26 03:51:11;;;;;;;0.30;0.30;;;4.40;99.90;;;;;;4983397;28;20521;-84
2021/03/26 03:53:44;;;;;;;0.30;0.30;;;4.30;99.90;;;;;;4991143;28;20077;-83
2021/03/26 03:56:17;;;;;;;0.10;0.10;;;4.40;99.90;;;;;;4989989;28;20069;-83
2021/03/26 03:58:48;;;;;;;0.17;0.17;;;4.30;99.90;;;;;;4982873;28;20034;-84
2021/03/26 04:01:21;;;;;;;0.17;0.17;;;4.20;99.90;;;;;;4988260;28;20034;-84
2021/03/26 04:03:51;;;;;;;0.20;0.20;;;4.10;99.90;;;;;;4984550;28;20034;-83
2021/03/26 04:06:29;;;;;;;0.57;0.57;;;4.20;99.90;;;;;;4989211;28;20019;-83
2021/03/26 04:08:59;;;;;;;0.73;0.73;;;4.10;99.90;;;;;;4984558;28;20048;-83
2021/03/26 04:11:36;;;;;;;0.10;0.10;;;4.10;99.90;;;;;;4989649;28;20036;-83
2021/03/26 04:14:13;;;;;;;1.55;1.23;;;4.20;99.90;;;;;;4990285;28;20030;-83
2021/03/26 04:16:43;;;;;;;0.50;0.50;;;4.20;99.90;;;;;;4982909;28;20062;-84
2021/03/26 04:19:15;;;;;;;0.10;0.10;;;4.10;99.90;;;;;;4990176;28;20064;-83
2021/03/26 04:21:45;;;;;;;0.20;0.20;;;4.20;99.90;;;;;;4986635;28;20077;-84
2021/03/26 04:24:34;;;;;;;0.15;0.15;;;4.10;99.90;;;;;;4988793;28;20030;-84
2021/03/26 04:27:05;;;;;;;0.40;0.40;;;4.10;99.90;;;;;;4984128;28;20689;-84
2021/03/26 04:29:42;;;;;;;0.75;0.75;;;4.10;99.90;;;;;;4985991;28;20038;-83
2021/03/26 04:32:14;;;;;;;8.40;1.23;;;4.10;99.90;;;;;;4987083;28;20040;-84
2021/03/26 04:34:44;;;;;;;0.10;0.10;;;3.90;99.90;;;;;;4985703;28;20042;-83
2021/03/26 04:37:15;;;;;;;0.80;0.80;;;3.90;99.90;;;;;;4985352;28;20034;-83
2021/03/26 04:40:05;;;;;;;0.32;0.22;;;3.90;99.90;;;;;;4984246;28;20030;-84
2021/03/26 04:42:47;;;;;;;0.30;0.30;;;3.80;99.90;;;;;;4989135;28;20390;-84
2021/03/26 04:45:37;;;;;;;0.50;0.50;;;3.80;99.90;;;;;;4988681;28;20031;-84
2021/03/26 04:48:11;;;;;;;0.10;0.10;;;3.80;99.90;;;;;;4989084;28;20033;-84
2021/03/26 04:50:44;;;;;;;0.30;0.30;;;3.90;99.90;;;;;;4988955;28;20034;-84
2021/03/26 04:53:20;;;;;;;0.10;0.10;;;3.80;99.90;;;;;;4989235;28;20031;-84
2021/03/26 04:55:59;;;;;;;0.20;0.20;;;3.70;99.90;;;;;;4978282;28;20510;-83
2021/03/26 04:58:31;;;;;;;0.30;0.30;;;3.80;99.90;;;;;;4990130;28;20177;-84
2021/03/26 05:00:59;;;;;;;0.40;0.40;;;3.70;99.90;;;;;;4986822;28;20407;-84
2021/03/26 05:03:36;;;;;;;0.65;0.65;;;3.70;99.90;;;;;;4984365;28;20033;-84
2021/03/26 05:06:09;;;;;;;0.52;0.52;;;3.70;99.90;;;;;;4984216;28;20440;-84
2021/03/26 05:08:39;;;;;;;0.20;0.20;;;3.60;99.90;;;;;;4985493;28;20153;-86
2021/03/26 05:11:06;;;;;;;8.60;1.48;;;3.70;99.90;;;;;;4979216;28;20037;-85
2021/03/26 05:13:41;;;;;;;;;;;3.70;99.90;;;;;;4985815;28;20027;-85
2021/03/26 05:16:46;;;;;;;0.10;0.10;;;3.70;99.90;;;;;;4979838;28;20428;-85
2021/03/26 05:19:35;;;;;;;0.10;0.10;;;3.60;99.90;;;;;;4981109;28;20050;-84
2021/03/26 05:22:33;;;;;;;0.10;0.10;;;3.60;99.90;;;;;;4985360;28;20069;-85
2021/03/26 05:25:12;;;;;;;0.30;0.30;;;3.60;99.90;;;;;;4945868;28;20396;-85
2021/03/26 05:27:38;;;;;;;0.55;0.55;;;3.50;99.90;;;;;;4943569;28;20035;-85
2021/03/26 05:30:05;;;;;;;0.10;0.10;;;3.50;99.90;;;;;;4938304;28;20039;-86
2021/03/26 05:32:41;;;;;;;0.20;0.20;;;3.50;99.90;;;;;;4940052;29;20152;-85
2021/03/26 05:35:23;;;;;;;0.30;0.30;;;3.40;99.90;;;;;;4947349;28;20675;-85
2021/03/26 05:38:07;;;;;;;0.20;0.20;;;3.40;99.90;;;;;;4931736;29;20031;-85
2021/03/26 05:40:48;;;;;;;0.45;0.45;;;3.40;99.90;;;;;;4946552;28;20829;-86
2021/03/26 05:43:32;;;;;;;0.20;0.20;;;3.40;99.90;;;;;;4945927;28;20043;-88
2021/03/26 05:46:36;;;;;;;0.10;0.10;;;3.40;99.90;;;;;;4947910;28;20079;-86
2021/03/26 05:49:33;;;;;;;0.20;0.20;;;3.40;99.90;;;;;;4947497;28;20118;-85
2021/03/26 05:52:18;;;;;;;0.38;0.38;;;3.40;99.90;;;;;;4947277;29;20121;-87
2021/03/26 05:55:06;;;;;;;1.63;1.42;;;3.40;99.90;;;;;;4947797;28;20279;-88
2021/03/26 05:57:56;;;;;;;0.20;0.20;;;3.40;99.90;;;;;;4944375;28;20141;-88
2021/03/26 06:00:34;;;;;;;0.15;0.15;;;3.40;99.90;;;;;;4946775;29;20035;-88
2021/03/26 06:03:32;;;;;;;0.55;0.55;;;3.40;99.90;;;;;;4985637;28;20426;-87
2021/03/26 06:06:30;;;;;;;2.35;0.75;;;3.50;99.90;;;;;;4992337;28;20050;-86
2021/03/26 06:09:21;;;;;;;0.10;0.10;;;3.60;99.90;;;;;;4997585;28;20033;-86
2021/03/26 06:12:11;;;;;;;1.25;1.10;;;3.60;99.90;;;;;;4993865;28;20034;-89
2021/03/26 06:14:54;;;;;;;0.20;0.20;;;3.60;99.90;;;;;;4987569;28;20034;-89
2021/03/26 06:17:51;;;;;;;3.30;1.23;;;3.80;99.90;;;;;;4998769;28;20533;-89
2021/03/26 06:20:32;;;;;;;0.10;0.10;;;4.00;99.90;;;;;;4988234;28;20413;-88
2021/03/26 06:23:03;;;;;;;0.20;0.20;;;4.20;99.90;;;;;;4989915;28;20502;-87
2021/03/26 06:26:01;;;;;;;0.20;0.20;;;4.30;99.90;;;;;;4994806;28;20032;-88
2021/03/26 06:28:40;;;;;;;9.52;1.90;;;4.50;99.90;;;;;;4992326;28;20394;-85
2021/03/26 06:31:35;;;;;;;0.25;0.25;;;4.80;99.90;;;;;;4996100;28;20014;-86
2021/03/26 06:34:35;;;;;;;0.30;0.30;;;5.00;99.90;;;;;;4993824;28;20027;-87
2021/03/26 06:37:32;;;;;;;0.20;0.20;;;4.80;99.90;;;;;;4991464;28;20026;-85
2021/03/26 06:40:03;;;;;;;;;;;5.10;99.90;;;;;;4994421;28;20030;-84
2021/03/26 06:42:52;;;;;;;0.90;0.63;;;5.40;99.90;;;;;;4992759;28;19924;-85
2021/03/26 06:45:35;;;;;;;0.10;0.10;;;5.40;99.90;;;;;;4993397;28;20025;-85
2021/03/26 06:48:29;;;;;;;0.65;0.43;;;5.50;99.90;;;;;;4993986;28;20069;-83
2021/03/26 06:51:10;;;;;;;0.10;0.10;;;5.50;99.90;;;;;;4995145;28;20923;-84
2021/03/26 06:54:04;;;;;;;0.28;0.28;;;5.40;99.90;;;;;;4995146;28;20486;-84
2021/03/26 06:56:49;;;;;;;0.20;0.20;;;5.30;99.90;;;;;;4993785;28;20026;-84
2021/03/26 06:59:23;;;;;;;0.10;0.10;;;5.30;99.90;;;;;;4994007;28;20469;-84
2021/03/26 07:02:00;;;;;;;0.47;0.47;;;5.50;99.90;;;;;;4986070;28;20605;-84
2021/03/26 07:04:48;;;;;;;0.00;0.00;;;6.00;99.90;;;;;;4995040;28;20512;-84
2021/03/26 07:07:32;;;;;;;0.20;0.20;;;6.50;99.90;;;;;;4995341;28;20049;-84
2021/03/26 07:10:16;;;;;;;0.10;0.10;;;6.80;99.90;;;;;;4991349;28;20037;-85
2021/03/26 07:12:43;;;;;;;2.35;1.02;;;7.50;99.90;;;;;;4995232;28;20023;-85
2021/03/26 07:15:17;;;;;;;0.52;0.50;;;8.00;99.90;;;;;;4997587;28;20080;-85
2021/03/26 07:18:05;;;;;;;0.00;0.00;;;8.20;99.90;;;;;;4997204;28;20101;-85
2021/03/26 07:21:08;;;;;;;0.55;0.47;;;8.60;99.90;;;;;;4988595;28;20101;-85
2021/03/26 07:23:55;;;;;;;0.00;0.00;;;8.50;99.90;;;;;;4995798;28;20042;-85
2021/03/26 07:26:43;;;;;;;0.00;0.00;;;8.00;99.90;;;;;;4997386;28;20027;-85
2021/03/26 07:29:29;;;;;;;0.17;0.17;;;7.90;99.90;;;;;;4993608;28;20042;-85
2021/03/26 07:32:01;;;;;;;0.52;0.52;;;8.50;99.90;;;;;;4985681;28;20058;-85
2021/03/26 07:34:42;;;;;;;0.75;0.57;;;8.90;99.90;;;;;;4995461;28;20022;-85
2021/03/26 07:37:25;;;;;;;0.10;0.10;;;9.70;99.90;;;;;;4995227;28;20030;-86
2021/03/26 07:40:35;;;;;;;0.10;0.10;;;10.70;99.90;;;;;;4992468;28;20034;-86
2021/03/26 07:43:37;;;;;;;0.43;0.43;;;11.60;99.90;;;;;;4992301;28;20034;-86
2021/03/26 07:46:20;;;;;;;0.20;0.20;;;12.80;99.90;;;;;;4980698;28;20118;-86
2021/03/26 07:49:13;;;;;;;1.75;0.90;;;12.60;99.90;;;;;;4990503;28;20030;-84
2021/03/26 07:52:04;;;;;;;0.20;0.20;;;12.90;99.90;;;;;;4991992;28;20065;-84
2021/03/26 07:54:43;;;;;;;0.68;0.68;;;13.30;99.90;;;;;;4979005;28;20035;-85
2021/03/26 07:57:30;;;;;;;0.10;0.10;;;13.40;99.90;;;;;;4991610;28;20506;-84
2021/03/26 08:00:02;;;;;;;0.10;0.10;;;14.00;99.90;;;;;;4991578;28;20402;-84
2021/03/26 08:02:56;;;;;;;0.30;0.30;;;14.20;99.90;;;;;;4991974;28;20699;-84
2021/03/26 08:05:26;;;;;;;0.17;0.17;;;14.20;99.90;;;;;;4991827;28;20509;-84
2021/03/26 08:08:24;;;;;;;0.35;0.35;;;14.60;99.90;;;;;;4991588;28;20020;-84
2021/03/26 08:11:05;;;;;;;0.10;0.10;;;14.90;99.90;;;;;;4968841;28;20066;-84
2021/03/26 08:13:57;;;;;;;0.63;0.40;;;14.50;99.90;;;;;;4990147;28;20513;-86
2021/03/26 08:16:32;;;;;;;0.10;0.10;;;14.40;99.90;;;;;;4990643;28;20085;-86
2021/03/26 08:19:26;;;;;;;0.20;0.20;;;14.50;99.90;;;;;;4990774;28;20050;-86
2021/03/26 08:22:16;;;;;;;0.30;0.30;;;14.90;99.90;;;;;;4989915;28;20050;-87
2021/03/26 08:24:45;;;;;;;2.72;0.80;;;15.00;99.90;;;;;;4992091;28;20026;-87
2021/03/26 08:27:33;;;;;;;0.10;0.10;;;15.70;99.90;;;;;;4990503;28;20027;-87
2021/03/26 08:30:20;;;;;;;0.35;0.35;;;15.80;99.90;;;;;;4990753;28;20105;-87
2021/03/26 08:33:04;;;;;;;0.10;0.10;;;15.60;99.90;;;;;;4991144;28;20041;-88
2021/03/26 08:35:35;;;;;;;0.30;0.30;;;16.00;99.90;;;;;;4991288;28;20018;-85
2021/03/26 08:38:32;;;;;;;0.10;0.10;;;17.90;99.90;;;;;;4991146;28;20522;-83
2021/03/26 08:41:16;;;;;;;0.17;0.17;;;19.40;99.90;;;;;;4978707;28;20403;-85
2021/03/26 08:43:50;;;;;;;0.30;0.30;;;19.00;99.90;;;;;;4988997;28;20049;-85
2021/03/26 08:46:22;;;;;;;0.10;0.10;;;18.40;99.90;;;;;;4989831;28;20383;-85
2021/03/26 08:48:59;;;;;;;0.30;0.10;;;18.00;99.90;;;;;;4991142;28;20198;-85
2021/03/26 08:51:43;;;;;;;;;;;18.20;99.90;;;;;;4989135;28;20037;-85
2021/03/26 08:54:43;;;;;;;0.10;0.10;;;18.30;99.90;;;;;;4981501;28;19936;-86
2021/03/26 08:57:27;;;;;;;0.25;0.25;;;19.90;99.90;;;;;;4989915;28;20034;-85
2021/03/26 09:00:04;;;;;;;0.10;0.10;;;21.20;99.90;;;;;;4988767;28;20083;-86
2021/03/26 09:03:13;;;;;;;0.20;0.20;;;21.70;99.90;;;;;;4990758;28;20058;-85
2021/03/26 09:06:02;;;;;;;0.22;0.22;;;23.50;99.90;;;;;;4984855;28;20030;-85
2021/03/26 09:08:49;;;;;;;0.10;0.10;;;24.00;99.90;;;;;;4948808;28;20455;-86
2021/03/26 09:11:41;;;;;;;0.10;0.10;;;23.30;99.90;;;;;;4968040;28;20522;-85
2021/03/26 09:14:24;;;;;;;0.20;0.20;;;20.80;99.90;;;;;;4960658;28;20082;-84
2021/03/26 09:17:07;;;;;;;0.20;0.20;;;21.80;99.90;;;;;;4968762;28;20085;-84
2021/03/26 09:19:43;;;;;;;1.08;0.40;;;21.60;99.90;;;;;;4968398;28;20046;-83
2021/03/26 09:22:15;;;;;;;0.10;0.10;;;21.50;99.90;;;;;;4974298;28;20558;-85
2021/03/26 09:25:08;;;;;;;0.10;0.10;;;20.20;99.90;;;;;;4968035;28;20039;-86
2021/03/26 09:27:43;;;;;;;0.20;0.20;;;19.00;99.90;;;;;;4957970;28;20086;-86
2021/03/26 09:30:43;;;;;;;0.40;0.38;;;20.40;99.90;;;;;;4952599;28;20499;-85
2021/03/26 09:33:15;;;;;;;0.10;0.10;;;22.90;99.90;;;;;;4949096;28;20035;-86
2021/03/26 09:35:56;;;;;;;0.17;0.17;;;21.70;99.90;;;;;;4968490;28;20037;-85
2021/03/26 09:38:33;;;;;;;4.65;0.82;;;21.30;99.90;;;;;;4968700;28;20122;-85
2021/03/26 09:41:45;;;;;;;0.10;0.10;;;20.80;99.90;;;;;;4956184;28;20096;-85
2021/03/26 09:44:39;;;;;;;0.20;0.20;;;19.90;99.90;;;;;;4968624;28;20499;-85
2021/03/26 09:47:12;;;;;;;0.45;0.20;;;20.70;99.90;;;;;;4990138;28;20491;-86
2021/03/26 09:49:51;;;;;;;0.10;0.10;;;21.00;99.90;;;;;;4990312;28;20034;-85
2021/03/26 09:52:27;;;;;;;0.20;0.20;;;22.10;99.90;;;;;;4990302;28;20040;-86
2021/03/26 09:55:01;;;;;;;0.65;0.65;;;23.50;99.90;;;;;;4989851;28;20030;-86
2021/03/26 09:57:55;;;;;;;0.20;0.20;;;24.00;99.90;;;;;;4988735;28;20415;-86
2021/03/26 10:00:48;;;;;;;0.40;0.40;;;23.20;99.90;;;;;;4978056;28;20026;-86
2021/03/26 10:03:41;;;;;;;0.13;0.13;;;22.80;99.90;;;;;;4977735;28;20026;-85
2021/03/26 10:06:13;;;;;;;0.25;0.25;;;23.10;99.90;;;;;;4988728;28;20030;-86
2021/03/26 10:11:55;;;;;;;0.20;0.20;;;24.40;99.90;;;;;;4976443;28;20497;-86
2021/03/26 10:14:28;;;;;;;0.10;0.10;;;24.20;99.90;;;;;;4989981;28;20037;-85
2021/03/26 10:17:12;;;;;;;0.20;0.20;;;27.20;99.90;;;;;;4989294;28;20058;-86
2021/03/26 10:19:39;;;;;;;0.40;0.40;;;27.60;98.50;;;;;;4988395;28;20391;-86
2021/03/26 10:22:23;;;;;;;0.20;0.20;;;26.70;99.90;;;;;;4989515;28;20031;-86
2021/03/26 10:24:55;;;;;;;0.10;0.10;;;26.80;99.90;;;;;;4989474;28;20446;-86
2021/03/26 10:27:29;;;;;;;0.35;0.35;;;25.30;98.70;;;;;;4988373;28;20018;-86
2021/03/26 10:29:58;;;;;;;0.60;0.50;;;27.10;97.20;;;;;;4989479;28;20022;-86
2021/03/26 10:32:28;;;;;;;0.10;0.10;;;28.30;97.30;;;;;;4989722;28;20113;-86
2021/03/26 10:34:56;;;;;;;0.57;0.57;;;27.40;97.00;;;;;;4989587;28;20026;-85
2021/03/26 10:37:52;;;;;;;1.75;0.75;;;23.80;99.90;;;;;;4988014;28;20033;-86
2021/03/26 10:40:32;;;;;;;0.35;0.35;;;24.30;99.40;;;;;;4989571;28;20044;-86
2021/03/26 10:43:09;;;;;;;0.10;0.10;;;28.30;96.90;;;;;;4989401;28;20523;-86
2021/03/26 10:45:52;;;;;;;0.63;0.57;;;27.50;97.70;;;;;;4989435;28;20372;-86
2021/03/26 10:48:50;;;;;;;0.70;0.55;;;28.60;95.00;;;;;;4989571;28;20143;-85
2021/03/26 10:51:53;;;;;;;0.30;0.30;;;31.00;91.80;;;;;;4971814;28;20031;-86
2021/03/26 10:54:25;;;;;;;0.55;0.35;;;26.90;95.10;;;;;;4987799;28;20379;-85
2021/03/26 10:57:03;;;;;;;0.40;0.40;;;25.30;96.50;;;;;;4989113;28;20031;-85
2021/03/26 10:59:53;;;;;;;0.55;0.55;;;23.40;97.80;;;;;;4987806;28;20672;-85
2021/03/26 11:02:22;;;;;;;0.10;0.10;;;24.80;96.20;;;;;;4988853;28;20049;-86
2021/03/26 11:05:06;;;;;;;0.30;0.30;;;24.70;99.20;;;;;;4988869;28;20034;-86
2021/03/26 11:07:58;;;;;;;0.15;0.15;;;25.40;97.00;;;;;;4988965;28;20057;-85
2021/03/26 11:10:34;;;;;;;0.15;0.15;;;26.10;95.10;;;;;;4986297;28;20100;-85
2021/03/26 11:13:10;;;;;;;;;;;27.50;93.50;;;;;;4988997;28;20019;-85
2021/03/26 11:15:44;;;;;;;0.10;0.10;;;25.70;96.10;;;;;;4992494;28;20017;-86
2021/03/26 11:18:19;;;;;;;0.00;0.00;;;26.70;93.60;;;;;;4992453;28;20304;-86
2021/03/26 11:21:09;;;;;;;1.58;0.47;;;25.30;95.30;;;;;;4992554;28;20041;-86
2021/03/26 11:23:41;;;;;;;0.30;0.30;;;23.60;97.50;;;;;;4992403;28;20049;-86
2021/03/26 11:26:15;;;;;;;0.10;0.10;;;22.20;99.10;;;;;;4991069;28;20109;-85
2021/03/26 11:28:56;;;;;;;0.20;0.20;;;22.20;99.90;;;;;;4991078;28;20022;-85
2021/03/26 11:31:40;;;;;;;0.10;0.10;;;22.00;99.90;;;;;;4991297;28;20041;-85
2021/03/26 11:34:27;;;;;;;0.20;0.20;;;22.70;98.70;;;;;;4992318;28;20049;-86
2021/03/26 11:36:55;;;;;;;0.65;0.45;;;23.00;97.80;;;;;;4991845;28;20030;-85
2021/03/26 11:39:28;;;;;;;0.35;0.35;;;23.80;98.00;;;;;;4992407;28;20021;-86
2021/03/26 11:42:30;;;;;;;0.25;0.25;;;22.50;99.70;;;;;;4991908;28;20089;-86
2021/03/26 11:45:06;;;;;;;0.10;0.10;;;19.90;99.90;;;;;;4991900;28;20073;-86
2021/03/26 11:47:36;;;;;;;0.20;0.20;;;19.50;99.90;;;;;;4991757;28;20031;-85
2021/03/26 11:50:23;;;;;;;0.38;0.38;;;20.00;99.90;;;;;;4991658;28;20108;-86
2021/03/26 11:53:21;;;;;;;0.30;0.30;;;19.50;99.90;;;;;;4977786;28;20038;-86
2021/03/26 11:56:08;;;;;;;0.63;0.63;;;20.00;99.90;;;;;;4989455;28;20038;-86
2021/03/26 11:58:37;;;;;;;0.65;0.65;;;19.90;99.90;;;;;;4991959;28;20030;-85
2021/03/26 12:01:08;;;;;;;0.22;0.22;;;19.50;99.90;;;;;;4990356;28;20473;-86
2021/03/26 12:03:44;;;;;;;1.90;0.38;;;19.50;99.90;;;;;;4991818;28;20501;-86
2021/03/26 12:06:37;;;;;;;0.10;0.10;;;19.30;99.90;;;;;;4991794;28;20026;-86
2021/03/26 12:09:10;;;;;;;0.22;0.22;;;19.80;99.90;;;;;;4991876;28;20048;-85
2021/03/26 12:12:07;;;;;;;0.30;0.10;;;19.80;99.90;;;;;;4985078;28;20455;-86
2021/03/26 12:14:54;;;;;;;0.15;0.15;;;19.40;99.90;;;;;;4989054;28;20037;-86
2021/03/26 12:17:50;;;;;;;0.10;0.10;;;19.20;99.90;;;;;;4991069;28;20133;-86
2021/03/26 12:20:16;;;;;;;0.25;0.25;;;19.50;99.90;;;;;;4978619;28;20030;-85
2021/03/26 12:23:18;;;;;;;0.10;0.10;;;19.20;99.90;;;;;;4991421;28;20654;-86
2021/03/26 12:25:57;;;;;;;2.67;1.48;;;19.00;99.90;;;;;;4990704;28;20387;-85
2021/03/26 12:28:38;;;;;;;0.10;0.10;;;19.00;99.90;;;;;;4991090;28;20026;-86
2021/03/26 12:31:21;;;;;;;0.25;0.25;;;19.50;99.90;;;;;;4989903;28;20022;-85
2021/03/26 12:34:14;;;;;;;0.25;0.25;;;19.10;99.90;;;;;;4990837;28;20034;-86
2021/03/26 12:36:49;;;;;;;0.47;0.47;;;19.20;99.90;;;;;;4990120;28;20406;-86
2021/03/26 12:39:31;;;;;;;0.10;0.10;;;19.10;99.90;;;;;;4991389;28;20018;-85
2021/03/26 12:42:18;;;;;;;1.10;0.68;;;19.10;99.90;;;;;;4991024;28;20104;-85
2021/03/26 12:45:09;;;;;;;0.32;0.32;;;18.60;99.90;;;;;;4991441;28;20034;-85
2021/03/26 12:47:46;;;;;;;0.40;0.40;;;18.40;99.90;;;;;;4990917;28;20022;-85
2021/03/26 12:50:21;;;;;;;0.38;0.20;;;18.40;99.90;;;;;;4989305;28;20038;-85
2021/03/26 12:53:02;;;;;;;1.77;0.60;;;18.90;99.90;;;;;;4990844;28;20026;-86
2021/03/26 12:55:33;;;;;;;0.10;0.10;;;19.00;99.90;;;;;;4990460;28;20509;-86
2021/03/26 12:58:36;;;;;;;0.10;0.10;;;18.10;99.90;;;;;;4990945;28;20026;-86
2021/03/26 13:01:15;;;;;;;0.10;0.10;;;18.40;99.90;;;;;;4989348;28;20037;-86
2021/03/26 13:04:02;;;;;;;0.45;0.40;;;18.20;99.90;;;;;;4990551;28;20114;-86
2021/03/26 13:06:41;;;;;;;0.10;0.10;;;17.90;99.90;;;;;;4976564;28;20077;-86
2021/03/26 13:09:19;;;;;;;0.90;0.90;;;18.00;99.90;;;;;;4989237;28;20132;-84
2021/03/26 13:11:50;;;;;;;0.22;0.22;;;18.40;99.90;;;;;;4995503;28;20030;-83
2021/03/26 13:14:43;;;;;;;0.65;0.43;;;18.50;99.90;;;;;;4999594;28;20026;-85
2021/03/26 13:17:31;;;;;;;0.45;0.10;;;18.80;99.90;;;;;;4998772;28;20053;-87
2021/03/26 13:20:07;;;;;;;0.20;0.20;;;19.50;99.90;;;;;;4994623;28;20022;-84
2021/03/26 13:22:43;;;;;;;0.10;0.10;;;19.30;99.90;;;;;;4999712;28;20030;-85
2021/03/26 13:25:20;;;;;;;0.10;0.10;;;19.30;99.90;;;;;;5000853;28;20026;-84
2021/03/26 13:27:55;;;;;;;0.20;0.20;;;19.60;99.90;;;;;;4993329;28;20035;-85
2021/03/26 13:30:34;;;;;;;0.13;0.13;;;19.10;99.90;;;;;;4997829;28;20026;-84
2021/03/26 13:33:10;;;;;;;0.20;0.20;;;19.20;99.90;;;;;;4998941;28;20034;-84
2021/03/26 13:35:47;;;;;;;0.52;0.52;;;19.00;99.90;;;;;;4987649;28;20110;-84
2021/03/26 13:38:26;;;;;;;0.80;0.43;;;18.90;99.90;;;;;;4985758;28;20053;-85
2021/03/26 13:40:54;;;;;;;0.35;0.35;;;18.80;99.90;;;;;;4988848;28;20030;-83
2021/03/26 13:43:27;;;;;;;0.50;0.38;;;18.60;99.90;;;;;;4988723;28;20033;-85
2021/03/26 13:46:00;;;;;;;0.20;0.13;;;18.30;99.90;;;;;;4987853;28;20019;-83
2021/03/26 13:48:36;;;;;;;0.20;0.20;;;18.30;99.90;;;;;;4998876;28;20084;-83
2021/03/26 13:51:10;;;;;;;0.25;0.25;;;18.40;99.90;;;;;;4988747;28;20044;-85
2021/03/26 13:54:06;;;;;;;0.52;0.52;;;18.30;99.90;;;;;;4991371;28;20029;-84
2021/03/26 13:56:38;;;;;;;;;;;18.50;99.90;;;;;;4995595;28;20041;-84